createdAt,value
2019-05-18T00:00:12.363Z,9.24
2019-05-18T00:01:16.163Z,9.28
2019-05-18T00:02:18.971Z,9.28
2019-05-18T00:03:22.670Z,9.32
2019-05-18T00:04:25.515Z,9.32
2019-05-18T00:05:28.874Z,9.30
2019-05-18T00:06:31.654Z,9.30
2019-05-18T00:07:35.160Z,9.25
2019-05-18T00:08:37.977Z,9.31
2019-05-18T00:09:41.636Z,9.31
2019-05-18T00:10:45.803Z,9.37
2019-05-18T00:11:49.215Z,9.35
2019-05-18T00:12:52.095Z,9.32
2019-05-18T00:13:55.882Z,9.30
2019-05-18T00:14:58.722Z,9.23
2019-05-18T00:16:02.333Z,9.19
2019-05-18T00:17:07.895Z,9.19
2019-05-18T00:18:10.590Z,9.20
2019-05-18T00:19:13.845Z,9.19
2019-05-18T00:20:19.551Z,9.19
2019-05-18T00:21:22.387Z,9.06
2019-05-18T00:22:26.598Z,9.13
2019-05-18T00:23:34.444Z,9.18
2019-05-18T00:24:38.317Z,9.18
2019-05-18T00:25:41.141Z,9.26
2019-05-18T00:26:46.736Z,9.25
2019-05-18T00:27:49.927Z,9.23
2019-05-18T00:28:53.604Z,9.26
2019-05-18T00:29:56.476Z,9.29
2019-05-18T00:30:59.884Z,9.29
2019-05-18T00:32:03.073Z,9.26
2019-05-18T00:33:06.535Z,9.26
2019-05-18T00:34:09.311Z,9.14
2019-05-18T00:35:13.066Z,8.97
2019-05-18T00:36:15.908Z,8.84
2019-05-18T00:37:21.739Z,8.84
2019-05-18T00:38:25.693Z,8.79
2019-05-18T00:39:29.154Z,8.63
2019-05-18T00:40:32.448Z,8.70
2019-05-18T00:41:36.178Z,8.84
2019-05-18T00:42:38.999Z,8.91
2019-05-18T00:43:42.437Z,8.93
2019-05-18T00:44:45.274Z,8.92
2019-05-18T00:45:48.602Z,8.92
2019-05-18T00:46:51.467Z,9.02
2019-05-18T00:47:55.166Z,9.05
2019-05-18T00:48:57.995Z,8.92
2019-05-18T00:50:01.450Z,8.62
2019-05-18T00:51:04.307Z,8.50
2019-05-18T00:52:07.771Z,8.58
2019-05-18T00:53:10.624Z,8.59
2019-05-18T00:54:14.256Z,8.59
2019-05-18T00:55:17.075Z,8.65
2019-05-18T00:56:20.429Z,8.65
2019-05-18T00:57:23.215Z,8.66
2019-05-18T00:58:26.676Z,8.70
2019-05-18T00:59:29.523Z,8.71
2019-05-18T01:00:37.559Z,8.70
2019-05-18T01:01:40.726Z,8.61
2019-05-18T01:02:45.465Z,8.57
2019-05-18T01:03:48.382Z,8.57
2019-05-18T01:04:51.789Z,8.49
2019-05-18T01:05:54.589Z,8.52
2019-05-18T01:07:01.454Z,8.61
2019-05-18T01:08:04.405Z,8.65
2019-05-18T01:09:08.206Z,8.65
2019-05-18T01:10:11.404Z,8.62
2019-05-18T01:11:15.201Z,8.62
2019-05-18T01:12:20.598Z,8.61
2019-05-18T01:13:24.223Z,8.70
2019-05-18T01:14:27.021Z,8.82
2019-05-18T01:15:30.613Z,8.82
2019-05-18T01:16:33.489Z,8.88
2019-05-18T01:17:36.957Z,8.91
2019-05-18T01:18:39.928Z,8.89
2019-05-18T01:19:43.568Z,8.88
2019-05-18T01:20:46.535Z,8.91
2019-05-18T01:21:50.006Z,8.91
2019-05-18T01:22:52.918Z,8.95
2019-05-18T01:23:56.355Z,8.86
2019-05-18T01:24:59.159Z,8.91
2019-05-18T01:26:02.834Z,8.91
2019-05-18T01:27:06.652Z,8.97
2019-05-18T01:28:10.092Z,8.96
2019-05-18T01:29:13.337Z,8.94
2019-05-18T01:30:16.681Z,8.87
2019-05-18T01:31:22.306Z,8.80
2019-05-18T01:32:27.898Z,8.77
2019-05-18T01:33:30.471Z,8.77
2019-05-18T01:34:34.209Z,8.77
2019-05-18T01:35:51.255Z,8.77
2019-05-18T01:36:54.602Z,8.61
2019-05-18T01:37:57.379Z,8.57
2019-05-18T01:39:01.373Z,8.61
2019-05-18T01:40:04.180Z,8.65
2019-05-18T01:41:07.647Z,8.65
2019-05-18T01:42:10.464Z,8.59
2019-05-18T01:43:13.969Z,8.59
2019-05-18T01:44:17.178Z,8.60
2019-05-18T01:45:24.746Z,8.61
2019-05-18T01:46:27.546Z,8.61
2019-05-18T01:47:30.946Z,8.61
2019-05-18T01:48:34.570Z,8.61
2019-05-18T01:49:41.911Z,8.61
2019-05-18T01:50:44.997Z,8.55
2019-05-18T01:51:50.271Z,8.41
2019-05-18T01:52:53.622Z,8.29
2019-05-18T01:53:57.094Z,8.35
2019-05-18T01:55:01.967Z,8.35
2019-05-18T01:56:05.141Z,8.28
2019-05-18T01:57:08.220Z,8.34
2019-05-18T01:58:19.668Z,8.40
2019-05-18T01:59:27.847Z,8.45
2019-05-18T02:00:31.172Z,8.45
2019-05-18T02:01:48.213Z,8.51
2019-05-18T02:02:45.655Z,8.53
2019-05-18T02:03:48.841Z,8.48
2019-05-18T02:04:52.221Z,8.54
2019-05-18T02:05:55.008Z,8.48
2019-05-18T02:06:59.341Z,8.48
2019-05-18T02:08:02.585Z,8.57
2019-05-18T02:09:07.354Z,8.59
2019-05-18T02:10:10.462Z,8.51
2019-05-18T02:11:13.835Z,8.51
2019-05-18T02:12:16.641Z,8.47
2019-05-18T02:13:20.470Z,8.46
2019-05-18T02:14:23.649Z,8.44
2019-05-18T02:15:28.169Z,8.44
2019-05-18T02:16:31.766Z,8.42
2019-05-18T02:17:35.439Z,8.39
2019-05-18T02:18:41.749Z,8.35
2019-05-18T02:19:45.210Z,8.26
2019-05-18T02:20:48.373Z,8.26
2019-05-18T02:21:52.074Z,8.24
2019-05-18T02:22:56.255Z,8.11
2019-05-18T02:23:59.644Z,8.15
2019-05-18T02:25:02.708Z,8.07
2019-05-18T02:26:06.238Z,8.02
2019-05-18T02:27:09.096Z,7.96
2019-05-18T02:28:12.625Z,7.96
2019-05-18T02:29:15.798Z,7.96
2019-05-18T02:30:19.149Z,7.99
2019-05-18T02:31:22.147Z,8.04
2019-05-18T02:32:25.944Z,8.04
2019-05-18T02:33:28.949Z,8.04
2019-05-18T02:34:33.590Z,8.09
2019-05-18T02:35:38.477Z,8.09
2019-05-18T02:36:41.876Z,7.98
2019-05-18T02:37:44.737Z,7.88
2019-05-18T02:38:50.053Z,7.88
2019-05-18T02:39:55.619Z,7.86
2019-05-18T02:40:59.339Z,7.90
2019-05-18T02:42:02.648Z,7.97
2019-05-18T02:43:05.996Z,8.01
2019-05-18T02:44:08.869Z,8.01
2019-05-18T02:45:12.297Z,8.11
2019-05-18T02:46:15.576Z,8.06
2019-05-18T02:47:19.332Z,8.10
2019-05-18T02:48:22.176Z,8.10
2019-05-18T02:49:25.528Z,8.10
2019-05-18T02:50:28.389Z,8.09
2019-05-18T02:51:31.765Z,8.02
2019-05-18T02:52:34.910Z,8.05
2019-05-18T02:53:38.827Z,8.09
2019-05-18T02:54:41.590Z,8.08
2019-05-18T02:55:46.866Z,8.03
2019-05-18T02:56:49.753Z,8.01
2019-05-18T02:57:53.159Z,8.01
2019-05-18T02:58:56.410Z,8.15
2019-05-18T03:00:03.202Z,8.20
2019-05-18T03:01:06.048Z,8.20
2019-05-18T03:02:10.116Z,8.29
2019-05-18T03:03:13.502Z,8.34
2019-05-18T03:04:20.099Z,8.35
2019-05-18T03:05:25.607Z,8.34
2019-05-18T03:06:31.865Z,8.26
2019-05-18T03:07:35.342Z,8.18
2019-05-18T03:08:40.911Z,8.16
2019-05-18T03:09:43.752Z,8.16
2019-05-18T03:10:47.129Z,8.16
2019-05-18T03:11:50.359Z,8.15
2019-05-18T03:12:54.331Z,8.15
2019-05-18T03:13:57.213Z,8.25
2019-05-18T03:15:00.548Z,8.30
2019-05-18T03:16:03.337Z,8.27
2019-05-18T03:17:06.855Z,8.28
2019-05-18T03:18:09.662Z,8.28
2019-05-18T03:19:13.437Z,8.35
2019-05-18T03:20:16.407Z,8.38
2019-05-18T03:21:19.817Z,8.40
2019-05-18T03:22:23.068Z,8.44
2019-05-18T03:23:26.560Z,8.43
2019-05-18T03:24:30.526Z,8.43
2019-05-18T03:25:34.170Z,8.46
2019-05-18T03:26:37.032Z,8.50
2019-05-18T03:27:40.516Z,8.55
2019-05-18T03:28:43.511Z,8.54
2019-05-18T03:29:46.865Z,8.52
2019-05-18T03:30:52.451Z,8.45
2019-05-18T03:31:56.137Z,8.39
2019-05-18T03:32:59.314Z,8.43
2019-05-18T03:34:02.784Z,8.42
2019-05-18T03:35:05.589Z,8.42
2019-05-18T03:36:09.471Z,8.45
2019-05-18T03:37:12.272Z,8.42
2019-05-18T03:38:15.942Z,8.38
2019-05-18T03:39:18.766Z,8.38
2019-05-18T03:40:22.164Z,8.36
2019-05-18T03:41:26.171Z,8.39
2019-05-18T03:42:31.598Z,8.39
2019-05-18T03:43:34.409Z,8.49
2019-05-18T03:44:38.194Z,8.58
2019-05-18T03:45:41.107Z,8.56
2019-05-18T03:46:44.621Z,8.64
2019-05-18T03:47:47.502Z,8.64
2019-05-18T03:48:50.983Z,8.63
2019-05-18T03:49:54.970Z,8.57
2019-05-18T03:50:59.138Z,8.56
2019-05-18T03:52:01.933Z,8.57
2019-05-18T03:53:05.467Z,8.32
2019-05-18T03:54:08.575Z,8.04
2019-05-18T03:55:11.936Z,7.89
2019-05-18T03:56:35.933Z,7.89
2019-05-18T03:57:39.190Z,8.05
2019-05-18T03:58:44.760Z,8.21
2019-05-18T03:59:47.640Z,8.21
2019-05-18T04:00:52.128Z,8.37
2019-05-18T04:01:54.940Z,8.49
2019-05-18T04:02:58.611Z,8.56
2019-05-18T04:04:01.517Z,8.52
2019-05-18T04:05:09.044Z,8.55
2019-05-18T04:06:11.866Z,8.56
2019-05-18T04:07:15.243Z,8.60
2019-05-18T04:08:18.063Z,8.66
2019-05-18T04:09:21.804Z,8.56
2019-05-18T04:10:24.637Z,8.56
2019-05-18T04:11:27.997Z,8.54
2019-05-18T04:12:30.831Z,8.54
2019-05-18T04:13:34.186Z,8.55
2019-05-18T04:14:37.210Z,8.62
2019-05-18T04:15:41.742Z,8.68
2019-05-18T04:16:44.552Z,8.68
2019-05-18T04:17:47.937Z,8.79
2019-05-18T04:18:53.060Z,8.83
2019-05-18T04:19:56.483Z,8.83
2019-05-18T04:20:59.369Z,8.84
2019-05-18T04:22:03.083Z,8.84
2019-05-18T04:23:05.932Z,8.94
2019-05-18T04:24:09.405Z,8.86
2019-05-18T04:25:12.237Z,8.72
2019-05-18T04:26:15.573Z,8.69
2019-05-18T04:27:19.798Z,8.74
2019-05-18T04:28:24.887Z,8.74
2019-05-18T04:29:27.745Z,8.88
2019-05-18T04:30:31.110Z,8.95
2019-05-18T04:31:33.999Z,8.97
2019-05-18T04:32:37.375Z,8.93
2019-05-18T04:33:40.258Z,8.93
2019-05-18T04:34:43.896Z,8.99
2019-05-18T04:35:46.701Z,8.99
2019-05-18T04:36:54.291Z,8.95
2019-05-18T04:37:57.120Z,9.02
2019-05-18T04:39:00.472Z,9.10
2019-05-18T04:40:03.318Z,9.07
2019-05-18T04:41:07.077Z,9.00
2019-05-18T04:42:10.037Z,9.00
2019-05-18T04:43:13.593Z,9.00
2019-05-18T04:44:16.707Z,8.82
2019-05-18T04:45:21.295Z,8.82
2019-05-18T04:46:24.307Z,8.91
2019-05-18T04:47:27.688Z,8.98
2019-05-18T04:48:32.159Z,9.08
2019-05-18T04:49:35.523Z,9.09
2019-05-18T04:50:39.569Z,9.21
2019-05-18T04:51:44.152Z,9.25
2019-05-18T04:52:46.996Z,9.25
2019-05-18T04:53:50.708Z,9.30
2019-05-18T04:54:56.437Z,9.34
2019-05-18T04:56:01.829Z,9.33
2019-05-18T04:57:04.503Z,9.33
2019-05-18T04:58:11.705Z,9.38
2019-05-18T04:59:15.268Z,9.44
2019-05-18T05:00:19.334Z,9.44
2019-05-18T05:01:22.171Z,9.48
2019-05-18T05:02:25.542Z,9.58
2019-05-18T05:03:28.527Z,9.58
2019-05-18T05:04:31.885Z,9.73
2019-05-18T05:05:34.769Z,9.73
2019-05-18T05:06:38.373Z,9.69
2019-05-18T05:07:41.206Z,9.58
2019-05-18T05:08:45.099Z,9.58
2019-05-18T05:09:48.018Z,9.46
2019-05-18T05:10:51.892Z,9.56
2019-05-18T05:11:54.738Z,9.61
2019-05-18T05:12:58.424Z,9.78
2019-05-18T05:14:01.409Z,9.88
2019-05-18T05:15:05.220Z,9.88
2019-05-18T05:16:13.083Z,9.94
2019-05-18T05:17:19.418Z,9.94
2019-05-18T05:18:25.747Z,9.97
2019-05-18T05:19:29.416Z,10.05
2019-05-18T05:20:32.314Z,10.19
2019-05-18T05:21:35.673Z,10.19
2019-05-18T05:22:44.546Z,10.25
2019-05-18T05:24:05.463Z,10.25
2019-05-18T05:25:27.302Z,10.40
2019-05-18T05:26:41.626Z,10.41
2019-05-18T05:27:46.202Z,10.43
2019-05-18T05:29:09.790Z,10.35
2019-05-18T05:43:50.906Z,10.69
2019-05-18T05:44:54.663Z,10.71
2019-05-18T05:45:57.581Z,10.71
2019-05-18T05:47:06.995Z,10.80
2019-05-18T05:48:10.166Z,10.82
2019-05-18T05:49:13.622Z,11.05
2019-05-18T05:50:34.134Z,11.04
2019-05-18T05:51:28.705Z,11.15
2019-05-18T05:52:31.521Z,11.09
2019-05-18T05:53:35.049Z,11.04
2019-05-18T05:54:40.481Z,11.01
2019-05-18T05:55:43.909Z,11.01
2019-05-18T05:56:52.795Z,11.26
2019-05-18T05:57:56.169Z,11.29
2019-05-18T05:58:59.070Z,11.33
2019-05-18T06:00:02.547Z,11.33
2019-05-18T06:01:06.727Z,11.23
2019-05-18T06:02:10.171Z,11.25
2019-05-18T06:03:13.459Z,11.23
2019-05-18T06:04:16.889Z,11.23
2019-05-18T06:05:19.839Z,11.16
2019-05-18T06:06:23.310Z,11.18
2019-05-18T06:07:26.613Z,11.18
2019-05-18T06:08:31.544Z,11.44
2019-05-18T06:09:37.467Z,11.41
2019-05-18T06:10:40.845Z,11.41
2019-05-18T06:11:46.294Z,11.46
2019-05-18T06:12:52.215Z,11.52
2019-05-18T06:13:55.466Z,11.52
2019-05-18T06:14:59.035Z,11.76
2019-05-18T06:16:01.959Z,11.83
2019-05-18T06:17:08.301Z,11.83
2019-05-18T06:18:10.020Z,12.13
2019-05-18T06:19:13.544Z,12.23
2019-05-18T06:20:16.851Z,12.41
2019-05-18T06:21:20.381Z,12.41
2019-05-18T06:22:23.228Z,12.10
2019-05-18T06:23:26.804Z,12.04
2019-05-18T06:24:30.189Z,12.04
2019-05-18T06:25:34.485Z,11.94
2019-05-18T06:26:38.852Z,11.97
2019-05-18T06:27:43.018Z,12.13
2019-05-18T06:28:46.049Z,12.32
2019-05-18T06:29:51.823Z,12.32
2019-05-18T06:30:54.493Z,12.34
2019-05-18T06:31:59.644Z,12.36
2019-05-18T06:33:02.774Z,12.36
2019-05-18T06:34:06.475Z,12.36
2019-05-18T06:35:11.152Z,12.44
2019-05-18T06:36:16.040Z,12.47
2019-05-18T06:37:19.061Z,12.32
2019-05-18T06:38:22.532Z,12.40
2019-05-18T06:39:26.066Z,12.52
2019-05-18T06:40:31.465Z,12.52
2019-05-18T06:41:35.088Z,12.89
2019-05-18T06:42:52.268Z,12.89
2019-05-18T06:43:58.245Z,13.22
2019-05-18T06:45:00.364Z,13.22
2019-05-18T06:46:03.753Z,13.41
2019-05-18T06:47:07.129Z,13.50
2019-05-18T06:48:10.203Z,13.72
2019-05-18T06:49:13.732Z,13.72
2019-05-18T06:50:18.741Z,13.78
2019-05-18T06:51:21.911Z,13.89
2019-05-18T06:52:24.882Z,13.96
2019-05-18T06:53:28.400Z,14.03
2019-05-18T06:54:35.503Z,14.03
2019-05-18T06:55:45.677Z,14.26
2019-05-18T06:56:51.867Z,14.26
2019-05-18T06:57:58.395Z,14.63
2019-05-18T06:59:06.393Z,14.62
2019-05-18T07:00:11.137Z,14.78
2019-05-18T07:01:17.158Z,14.78
2019-05-18T07:02:21.396Z,15.01
2019-05-18T07:03:24.561Z,15.33
2019-05-18T07:04:45.702Z,15.44
2019-05-18T07:05:49.914Z,15.41
2019-05-18T07:06:53.818Z,15.41
2019-05-18T07:07:56.815Z,15.70
2019-05-18T07:09:00.186Z,15.77
2019-05-18T07:10:06.243Z,15.86
2019-05-18T07:11:10.506Z,15.92
2019-05-18T07:12:13.342Z,15.92
2019-05-18T07:13:19.697Z,16.18
2019-05-18T07:14:25.767Z,16.29
2019-05-18T07:15:27.658Z,16.50
2019-05-18T07:16:37.319Z,16.50
2019-05-18T07:17:40.995Z,16.73
2019-05-18T07:18:43.900Z,16.83
2019-05-18T07:19:47.413Z,16.88
2019-05-18T07:20:50.328Z,16.88
2019-05-18T07:21:55.149Z,17.06
2019-05-18T07:22:57.950Z,17.31
2019-05-18T07:24:01.759Z,17.47
2019-05-18T07:25:04.609Z,17.47
2019-05-18T07:26:08.071Z,17.65
2019-05-18T07:27:11.003Z,17.47
2019-05-18T07:28:14.399Z,17.47
2019-05-18T07:29:20.162Z,17.31
2019-05-18T07:30:23.849Z,17.45
2019-05-18T07:31:29.831Z,17.75
2019-05-18T07:32:33.305Z,18.06
2019-05-18T07:33:36.163Z,18.15
2019-05-18T07:34:41.814Z,18.17
2019-05-18T07:35:45.320Z,17.98
2019-05-18T07:36:50.134Z,18.12
2019-05-18T07:37:53.020Z,18.16
2019-05-18T07:38:56.446Z,18.10
2019-05-18T07:40:02.377Z,17.90
2019-05-18T07:41:05.945Z,17.87
2019-05-18T07:42:08.796Z,17.85
2019-05-18T07:43:12.698Z,18.03
2019-05-18T07:44:15.570Z,18.34
2019-05-18T07:45:19.034Z,18.21
2019-05-18T07:46:21.836Z,17.97
2019-05-18T07:47:25.298Z,17.84
2019-05-18T07:48:45.748Z,17.84
2019-05-18T07:49:49.166Z,17.30
2019-05-18T07:50:52.015Z,17.40
2019-05-18T07:51:55.405Z,17.53
2019-05-18T07:52:58.700Z,17.53
2019-05-18T07:54:02.226Z,17.45
2019-05-18T07:55:05.527Z,17.55
2019-05-18T07:56:08.940Z,17.76
2019-05-18T07:57:11.793Z,17.76
2019-05-18T07:58:15.615Z,18.04
2019-05-18T07:59:19.990Z,18.19
2019-05-18T08:00:24.230Z,18.14
2019-05-18T08:01:27.492Z,18.14
2019-05-18T08:02:37.894Z,18.13
2019-05-18T08:03:40.661Z,18.33
2019-05-18T08:04:44.086Z,18.09
2019-05-18T08:05:51.650Z,18.22
2019-05-18T08:06:58.595Z,18.60
2019-05-18T08:08:04.485Z,18.94
2019-05-18T08:09:07.854Z,19.13
2019-05-18T08:10:11.785Z,19.10
2019-05-18T08:11:15.638Z,19.12
2019-05-18T08:12:19.606Z,19.05
2019-05-18T08:13:28.727Z,19.05
2019-05-18T08:14:33.995Z,19.01
2019-05-18T08:15:37.765Z,19.08
2019-05-18T08:16:40.666Z,18.89
2019-05-18T08:17:49.066Z,19.15
2019-05-18T08:18:51.919Z,19.51
2019-05-18T08:19:55.850Z,19.51
2019-05-18T08:21:00.911Z,19.68
2019-05-18T08:22:06.758Z,19.79
2019-05-18T08:23:09.710Z,20.06
2019-05-18T08:24:13.059Z,19.63
2019-05-18T08:25:31.934Z,19.63
2019-05-18T08:26:35.524Z,20.31
2019-05-18T08:27:42.812Z,20.43
2019-05-18T08:28:46.271Z,19.94
2019-05-18T08:29:49.267Z,20.01
2019-05-18T08:30:54.883Z,19.99
2019-05-18T08:31:58.145Z,20.03
2019-05-18T08:33:01.566Z,19.91
2019-05-18T08:34:07.267Z,19.93
2019-05-18T08:35:11.527Z,20.05
2019-05-18T08:36:14.409Z,20.21
2019-05-18T08:37:17.843Z,20.16
2019-05-18T08:38:21.074Z,20.28
2019-05-18T08:39:27.742Z,20.28
2019-05-18T08:40:30.720Z,19.27
2019-05-18T08:41:37.151Z,18.98
2019-05-18T08:42:43.018Z,19.16
2019-05-18T08:43:46.419Z,19.44
2019-05-18T08:44:53.874Z,19.12
2019-05-18T08:45:57.964Z,19.04
2019-05-18T08:47:01.637Z,19.04
2019-05-18T08:48:06.410Z,18.98
2019-05-18T08:49:14.305Z,19.17
2019-05-18T08:50:19.782Z,19.17
2019-05-18T08:51:24.516Z,19.45
2019-05-18T08:52:27.734Z,19.26
2019-05-18T08:53:30.688Z,19.04
2019-05-18T08:54:38.638Z,19.04
2019-05-18T08:55:43.671Z,19.50
2019-05-18T08:56:47.015Z,19.51
2019-05-18T08:57:52.249Z,19.48
2019-05-18T08:58:55.269Z,19.48
2019-05-18T09:00:00.183Z,19.85
2019-05-18T09:01:03.665Z,20.33
2019-05-18T09:02:06.481Z,20.57
2019-05-18T09:03:09.837Z,20.53
2019-05-18T09:04:12.966Z,20.43
2019-05-18T09:05:16.454Z,20.33
2019-05-18T09:06:19.384Z,20.33
2019-05-18T09:07:22.728Z,20.93
2019-05-18T09:08:26.835Z,21.94
2019-05-18T09:09:32.913Z,21.79
2019-05-18T09:10:36.538Z,20.61
2019-05-18T09:11:42.635Z,20.39
2019-05-18T09:12:45.437Z,20.41
2019-05-18T09:13:55.104Z,20.41
2019-05-18T09:15:00.410Z,20.82
2019-05-18T09:16:03.489Z,20.82
2019-05-18T09:17:06.450Z,21.21
2019-05-18T09:18:11.386Z,21.21
2019-05-18T09:19:14.412Z,21.52
2019-05-18T09:20:22.075Z,21.52
2019-05-18T09:21:24.951Z,20.94
2019-05-18T09:22:29.725Z,20.94
2019-05-18T09:23:37.021Z,20.92
2019-05-18T09:24:42.087Z,20.92
2019-05-18T09:25:50.442Z,20.50
2019-05-18T09:26:54.204Z,20.36
2019-05-18T09:28:06.186Z,20.36
2019-05-18T09:29:09.551Z,20.59
2019-05-18T09:30:13.029Z,20.59
2019-05-18T09:31:16.530Z,21.03
2019-05-18T09:32:20.527Z,21.03
2019-05-18T09:33:26.960Z,21.31
2019-05-18T09:34:29.691Z,21.40
2019-05-18T09:35:39.996Z,21.23
2019-05-18T09:36:45.172Z,20.55
2019-05-18T09:37:48.768Z,20.64
2019-05-18T09:38:51.755Z,20.82
2019-05-18T09:39:56.427Z,20.94
2019-05-18T09:41:01.823Z,20.39
2019-05-18T09:42:05.521Z,20.37
2019-05-18T09:43:11.380Z,20.36
2019-05-18T09:44:20.072Z,20.49
2019-05-18T09:45:26.024Z,20.82
2019-05-18T09:46:29.260Z,20.74
2019-05-18T09:47:34.766Z,20.76
2019-05-18T09:48:38.102Z,20.73
2019-05-18T09:49:41.805Z,20.68
2019-05-18T09:50:48.228Z,20.61
2019-05-18T09:51:51.186Z,21.01
2019-05-18T09:52:54.562Z,21.68
2019-05-18T09:54:00.445Z,21.68
2019-05-18T09:55:06.914Z,21.05
2019-05-18T09:56:13.257Z,21.05
2019-05-18T09:57:23.279Z,21.24
2019-05-18T09:58:37.831Z,21.12
2019-05-18T09:59:45.318Z,21.12
2019-05-18T10:00:48.216Z,21.25
2019-05-18T10:01:56.375Z,21.34
2019-05-18T10:02:59.492Z,21.19
2019-05-18T10:04:08.114Z,21.17
2019-05-18T10:05:13.442Z,21.17
2019-05-18T10:06:19.669Z,21.14
2019-05-18T10:07:28.876Z,21.73
2019-05-18T10:08:32.373Z,22.25
2019-05-18T10:09:39.424Z,22.25
2019-05-18T10:10:42.336Z,21.96
2019-05-18T10:11:46.513Z,22.25
2019-05-18T10:12:58.429Z,22.17
2019-05-18T10:14:02.859Z,21.69
2019-05-18T10:15:06.146Z,21.03
2019-05-18T10:16:14.232Z,21.08
2019-05-18T10:17:17.851Z,20.71
2019-05-18T10:18:21.919Z,20.71
2019-05-18T10:19:27.377Z,20.71
2019-05-18T10:20:30.108Z,20.76
2019-05-18T10:21:33.524Z,21.09
2019-05-18T10:22:36.847Z,20.79
2019-05-18T10:23:42.253Z,20.52
2019-05-18T10:24:45.263Z,21.03
2019-05-18T10:25:48.613Z,21.42
2019-05-18T10:26:51.501Z,21.42
2019-05-18T10:27:55.004Z,20.97
2019-05-18T10:28:57.787Z,21.71
2019-05-18T10:42:52.498Z,21.50
2019-05-18T10:43:57.225Z,22.17
2019-05-18T10:45:00.257Z,21.87
2019-05-18T10:46:04.164Z,21.87
2019-05-18T10:47:07.303Z,21.25
2019-05-18T10:48:11.107Z,20.89
2019-05-18T10:49:14.423Z,20.89
2019-05-18T10:50:17.866Z,21.14
2019-05-18T10:51:23.110Z,21.14
2019-05-18T10:52:29.143Z,20.33
2019-05-18T10:53:31.944Z,20.33
2019-05-18T10:54:39.340Z,20.47
2019-05-18T10:55:44.185Z,20.21
2019-05-18T10:56:47.282Z,20.38
2019-05-18T10:57:55.783Z,20.61
2019-05-18T10:58:59.207Z,20.85
2019-05-18T11:00:04.104Z,20.75
2019-05-18T11:01:10.241Z,20.75
2019-05-18T11:02:15.295Z,20.48
2019-05-18T11:03:18.637Z,20.48
2019-05-18T11:04:24.288Z,20.76
2019-05-18T11:05:27.794Z,20.61
2019-05-18T11:06:32.234Z,20.59
2019-05-18T11:07:37.110Z,20.59
2019-05-18T11:08:39.994Z,20.21
2019-05-18T11:09:45.043Z,20.21
2019-05-18T11:10:49.708Z,19.95
2019-05-18T11:11:54.376Z,19.97
2019-05-18T11:13:00.278Z,19.97
2019-05-18T11:14:04.425Z,20.76
2019-05-18T11:15:07.775Z,20.91
2019-05-18T11:16:11.288Z,20.90
2019-05-18T11:17:22.008Z,20.99
2019-05-18T11:18:25.372Z,21.06
2019-05-18T11:19:28.212Z,21.15
2019-05-18T11:20:34.987Z,20.86
2019-05-18T11:21:38.934Z,20.80
2019-05-18T11:22:42.302Z,20.81
2019-05-18T11:23:48.058Z,21.12
2019-05-18T11:24:51.563Z,21.50
2019-05-18T11:25:56.382Z,21.50
2019-05-18T11:27:00.005Z,20.92
2019-05-18T11:28:03.289Z,21.77
2019-05-18T11:29:06.711Z,22.54
2019-05-18T11:30:09.834Z,22.78
2019-05-18T11:31:13.548Z,22.78
2019-05-18T11:32:18.574Z,22.76
2019-05-18T11:33:22.675Z,22.68
2019-05-18T11:34:25.514Z,22.68
2019-05-18T11:35:31.249Z,22.34
2019-05-18T11:36:37.238Z,22.46
2019-05-18T11:37:40.658Z,22.71
2019-05-18T11:38:46.818Z,23.26
2019-05-18T11:39:50.227Z,23.66
2019-05-18T11:40:53.686Z,23.66
2019-05-18T11:41:58.231Z,23.22
2019-05-18T11:43:01.552Z,22.94
2019-05-18T11:44:10.782Z,22.94
2019-05-18T11:45:14.682Z,22.19
2019-05-18T11:46:33.467Z,21.88
2019-05-18T11:47:36.252Z,21.97
2019-05-18T11:48:39.829Z,21.90
2019-05-18T11:49:42.740Z,22.03
2019-05-18T11:50:47.579Z,21.56
2019-05-18T11:51:50.540Z,21.51
2019-05-18T11:52:53.973Z,21.43
2019-05-18T11:53:59.515Z,21.37
2019-05-18T11:55:04.506Z,21.37
2019-05-18T11:56:07.555Z,21.94
2019-05-18T11:57:14.773Z,22.01
2019-05-18T11:58:18.217Z,22.33
2019-05-18T11:59:24.048Z,22.21
2019-05-18T12:00:32.230Z,22.21
2019-05-18T12:01:33.244Z,22.35
2019-05-18T12:02:39.777Z,22.35
2019-05-18T12:03:46.381Z,22.40
2019-05-18T12:04:50.179Z,21.98
2019-05-18T12:06:02.861Z,21.69
2019-05-18T12:07:06.320Z,22.04
2019-05-18T12:08:09.829Z,22.46
2019-05-18T12:09:12.696Z,22.46
2019-05-18T12:10:18.329Z,21.80
2019-05-18T12:11:24.237Z,21.80
2019-05-18T12:12:29.046Z,22.10
2019-05-18T12:13:32.158Z,22.05
2019-05-18T12:14:37.880Z,21.94
2019-05-18T12:15:43.769Z,21.94
2019-05-18T12:16:47.624Z,22.15
2019-05-18T12:17:50.679Z,22.15
2019-05-18T12:18:57.748Z,22.75
2019-05-18T12:20:04.162Z,22.44
2019-05-18T12:21:07.979Z,22.25
2019-05-18T12:22:11.148Z,22.02
2019-05-18T12:23:14.908Z,22.07
2019-05-18T12:24:17.877Z,22.15
2019-05-18T12:25:21.360Z,22.15
2019-05-18T12:26:24.271Z,21.44
2019-05-18T12:27:28.415Z,21.39
2019-05-18T12:28:31.591Z,21.39
2019-05-18T12:29:35.388Z,21.32
2019-05-18T12:30:39.918Z,21.32
2019-05-18T12:31:43.595Z,21.33
2019-05-18T12:32:46.411Z,21.84
2019-05-18T12:33:50.015Z,21.86
2019-05-18T12:34:59.911Z,21.74
2019-05-18T12:36:03.370Z,21.74
2019-05-18T12:37:06.545Z,21.58
2019-05-18T12:38:16.395Z,21.56
2019-05-18T12:39:22.204Z,21.07
2019-05-18T12:40:28.050Z,21.58
2019-05-18T12:41:31.539Z,21.57
2019-05-18T12:42:39.427Z,21.71
2019-05-18T12:43:42.398Z,22.06
2019-05-18T12:44:51.564Z,22.39
2019-05-18T12:45:57.243Z,22.53
2019-05-18T12:47:03.244Z,22.53
2019-05-18T12:48:12.923Z,22.71
2019-05-18T12:49:19.118Z,22.53
2019-05-18T12:50:24.190Z,22.43
2019-05-18T12:51:27.566Z,22.80
2019-05-18T12:52:31.962Z,22.80
2019-05-18T12:53:35.315Z,23.46
2019-05-18T12:54:46.117Z,23.38
2019-05-18T12:55:44.650Z,23.53
2019-05-18T12:56:53.046Z,23.83
2019-05-18T12:57:56.358Z,23.71
2019-05-18T12:59:01.842Z,23.63
2019-05-18T13:00:07.672Z,23.17
2019-05-18T13:01:13.828Z,22.89
2019-05-18T13:02:20.299Z,23.01
2019-05-18T13:03:23.240Z,23.16
2019-05-18T13:04:26.633Z,23.18
2019-05-18T13:05:38.662Z,23.18
2019-05-18T13:06:43.508Z,22.87
2019-05-18T13:07:46.804Z,22.86
2019-05-18T13:08:50.209Z,22.96
2019-05-18T13:09:53.053Z,22.96
2019-05-18T13:10:56.482Z,23.05
2019-05-18T13:11:59.587Z,22.87
2019-05-18T13:13:03.954Z,22.82
2019-05-18T13:14:10.395Z,22.82
2019-05-18T13:15:15.556Z,22.87
2019-05-18T13:16:18.915Z,22.75
2019-05-18T13:17:25.014Z,22.54
2019-05-18T13:18:27.897Z,22.60
2019-05-18T13:19:31.273Z,22.69
2019-05-18T13:20:34.530Z,22.60
2019-05-18T13:21:37.795Z,22.63
2019-05-18T13:22:46.385Z,22.67
2019-05-18T13:23:49.778Z,22.67
2019-05-18T13:24:55.248Z,22.85
2019-05-18T13:26:02.312Z,23.37
2019-05-18T13:27:08.860Z,23.25
2019-05-18T13:28:12.965Z,23.55
2019-05-18T13:29:15.759Z,23.87
2019-05-18T13:30:21.903Z,23.64
2019-05-18T13:31:24.748Z,22.84
2019-05-18T13:32:32.717Z,22.84
2019-05-18T13:33:40.518Z,22.81
2019-05-18T13:34:46.713Z,22.81
2019-05-18T13:35:49.651Z,23.00
2019-05-18T13:36:53.018Z,21.88
2019-05-18T13:38:05.009Z,21.66
2019-05-18T13:39:08.349Z,21.16
2019-05-18T13:40:16.161Z,21.73
2019-05-18T13:41:19.389Z,21.97
2019-05-18T13:42:22.634Z,22.45
2019-05-18T13:43:26.005Z,22.58
2019-05-18T13:44:28.873Z,22.56
2019-05-18T13:45:32.366Z,22.82
2019-05-18T13:46:35.557Z,22.35
2019-05-18T13:47:39.858Z,22.91
2019-05-18T13:48:42.645Z,22.51
2019-05-18T13:49:46.087Z,22.44
2019-05-18T13:50:48.959Z,22.43
2019-05-18T13:51:52.445Z,22.00
2019-05-18T13:53:00.419Z,21.53
2019-05-18T13:54:24.226Z,21.53
2019-05-18T13:55:29.928Z,21.44
2019-05-18T13:56:35.047Z,21.44
2019-05-18T13:57:38.498Z,22.10
2019-05-18T13:58:44.388Z,21.95
2019-05-18T13:59:47.476Z,21.13
2019-05-18T14:00:55.433Z,21.10
2019-05-18T14:01:58.223Z,21.17
2019-05-18T14:03:01.659Z,21.17
2019-05-18T14:04:04.502Z,21.43
2019-05-18T14:05:11.415Z,21.51
2019-05-18T14:06:14.754Z,21.34
2019-05-18T14:07:18.216Z,21.34
2019-05-18T14:08:29.930Z,21.49
2019-05-18T14:09:33.326Z,22.52
2019-05-18T14:10:36.236Z,22.95
2019-05-18T14:11:40.145Z,22.82
2019-05-18T14:12:43.582Z,22.16
2019-05-18T14:13:47.363Z,22.10
2019-05-18T14:14:50.537Z,22.85
2019-05-18T14:15:53.978Z,23.12
2019-05-18T14:16:56.804Z,23.30
2019-05-18T14:18:02.312Z,22.79
2019-05-18T14:19:05.180Z,22.79
2019-05-18T14:20:08.607Z,23.31
2019-05-18T14:21:11.517Z,23.67
2019-05-18T14:22:15.021Z,23.67
2019-05-18T14:23:18.189Z,23.72
2019-05-18T14:24:27.089Z,23.38
2019-05-18T14:25:29.953Z,23.47
2019-05-18T14:26:33.328Z,23.57
2019-05-18T14:27:36.331Z,24.32